Time;durP1;ratioP1;P1;durP2;ratioP2;P2;SDS_P1;SDS_P2;PMS_P1;PMS_P2;Temp;Humidity;BMP_temperature;BMP_pressure;BME280_temperature;BME280_humidity;BME280_pressure;Samples;Min_cycle;Max_cycle;Signal;HPM_P1;HPM_P2
2022/09/07 00:00:42;;;;;;;;;1.50;1.50;;;;;;;;5064916;28;45780;-74
2022/09/07 00:03:08;;;;;;;;;1.00;1.00;;;;;;;;5053382;28;45717;-75
2022/09/07 00:05:39;;;;;;;;;2.75;1.00;;;;;;;;5073502;27;45520;-74
2022/09/07 00:08:04;;;;;;;;;1.00;1.00;;;;;;;;5073337;28;47284;-74
2022/09/07 00:10:30;;;;;;;;;1.00;1.00;;;;;;;;5072798;27;45786;-74
2022/09/07 00:12:55;;;;;;;;;1.67;1.67;;;;;;;;5073714;28;45609;-75
2022/09/07 00:15:21;;;;;;;;;1.00;1.00;;;;;;;;5058506;28;45459;-74
2022/09/07 00:17:46;;;;;;;;;1.00;1.00;;;;;;;;5066622;27;45761;-73
2022/09/07 00:20:11;;;;;;;;;1.00;1.00;;;;;;;;5070099;28;45577;-75
2022/09/07 00:22:37;;;;;;;;;1.00;1.00;;;;;;;;5073217;27;45739;-73
2022/09/07 00:25:02;;;;;;;;;1.67;1.67;;;;;;;;5066040;27;45418;-75
2022/09/07 00:27:28;;;;;;;;;3.67;2.00;;;;;;;;5067557;27;46149;-74
2022/09/07 00:29:53;;;;;;;;;2.00;2.00;;;;;;;;5073040;28;45633;-75
2022/09/07 00:32:18;;;;;;;;;6.67;6.67;;;;;;;;5069292;28;45587;-72
2022/09/07 00:34:44;;;;;;;;;3.00;1.00;;;;;;;;5072768;28;45326;-73
2022/09/07 00:37:09;;;;;;;;;2.67;2.67;;;;;;;;5072362;27;46105;-73
2022/09/07 00:39:36;;;;;;;;;3.33;2.00;;;;;;;;5060923;28;45662;-74
2022/09/07 00:42:01;;;;;;;;;2.67;2.00;;;;;;;;5070831;28;45819;-73
2022/09/07 00:44:39;;;;;;;;;4.67;3.33;;;;;;;;5073886;28;45837;-74
2022/09/07 00:47:09;;;;;;;;;2.00;2.00;;;;;;;;5072385;28;45639;-74
2022/09/07 00:49:36;;;;;;;;;4.33;3.00;;;;;;;;5078609;27;45309;-73
2022/09/07 00:52:03;;;;;;;;;2.00;2.00;;;;;;;;5080226;27;45442;-73
2022/09/07 00:54:47;;;;;;;;;2.00;2.00;;;;;;;;5069187;27;45787;-73
2022/09/07 00:57:13;;;;;;;;;3.25;1.25;;;;;;;;5059805;28;45499;-73
2022/09/07 00:59:41;;;;;;;;;3.00;1.33;;;;;;;;5071397;27;45333;-73
2022/09/07 01:02:07;;;;;;;;;4.00;2.33;;;;;;;;5062837;27;45367;-73
2022/09/07 01:04:33;;;;;;;;;2.25;1.00;;;;;;;;5066703;27;45439;-72
2022/09/07 01:06:58;;;;;;;;;2.00;2.00;;;;;;;;5076067;27;46315;-73
2022/09/07 01:09:25;;;;;;;;;3.75;2.00;;;;;;;;5075688;27;45302;-73
2022/09/07 01:11:51;;;;;;;;;2.33;1.33;;;;;;;;5075777;27;45648;-71
2022/09/07 01:14:27;;;;;;;;;2.00;2.00;;;;;;;;5076097;28;45799;-73
2022/09/07 01:17:00;;;;;;;;;3.00;1.25;;;;;;;;5056952;28;47728;-72
2022/09/07 01:19:25;;;;;;;;;3.00;1.67;;;;;;;;5057989;28;45686;-71
2022/09/07 01:21:51;;;;;;;;;4.00;2.33;;;;;;;;5073585;27;45372;-73
2022/09/07 01:24:16;;;;;;;;;4.00;2.00;;;;;;;;5054173;28;46134;-72
2022/09/07 01:27:01;;;;;;;;;0.67;0.67;;;;;;;;5058660;27;47641;-70
2022/09/07 01:29:34;;;;;;;;;1.00;1.00;;;;;;;;5064851;28;45604;-71
2022/09/07 01:32:00;;;;;;;;;0.67;0.67;;;;;;;;5076904;28;45708;-71
2022/09/07 01:34:25;;;;;;;;;1.00;1.00;;;;;;;;5075833;27;45497;-71
2022/09/07 01:36:53;;;;;;;;;2.00;2.00;;;;;;;;5074064;27;46516;-70
2022/09/07 01:39:22;;;;;;;;;4.33;1.33;;;;;;;;5076164;27;45306;-71
2022/09/07 01:42:06;;;;;;;;;2.33;1.00;;;;;;;;5072591;28;45210;-70
2022/09/07 01:44:37;;;;;;;;;2.67;2.00;;;;;;;;5075381;27;45999;-71
2022/09/07 01:47:08;;;;;;;;;2.67;1.67;;;;;;;;5075294;28;45509;-71
2022/09/07 01:49:47;;;;;;;;;1.00;1.00;;;;;;;;5065222;27;45337;-70
2022/09/07 01:52:32;;;;;;;;;3.00;2.00;;;;;;;;5064726;28;45585;-73
2022/09/07 01:55:01;;;;;;;;;1.67;1.67;;;;;;;;5061923;28;45569;-71
2022/09/07 01:57:31;;;;;;;;;2.00;1.00;;;;;;;;5076030;28;46131;-71
2022/09/07 02:00:01;;;;;;;;;2.00;2.00;;;;;;;;5071521;27;45353;-72
2022/09/07 02:02:33;;;;;;;;;1.25;1.25;;;;;;;;5069475;27;45238;-73
2022/09/07 02:05:03;;;;;;;;;1.25;1.00;;;;;;;;5078969;27;45380;-72
2022/09/07 02:07:31;;;;;;;;;2.33;1.00;;;;;;;;5062596;28;46677;-74
2022/09/07 02:10:02;;;;;;;;;1.00;1.00;;;;;;;;5068261;27;45604;-72
2022/09/07 02:12:41;;;;;;;;;4.00;3.00;;;;;;;;5054960;28;45955;-71
2022/09/07 02:15:10;;;;;;;;;1.33;1.33;;;;;;;;5047322;28;45785;-72
2022/09/07 02:17:40;;;;;;;;;2.25;2.25;;;;;;;;5073211;27;46226;-71
2022/09/07 02:20:18;;;;;;;;;2.33;1.00;;;;;;;;5067833;28;45638;-72
2022/09/07 02:22:46;;;;;;;;;1.75;1.75;;;;;;;;5063955;27;45364;-72
2022/09/07 02:25:16;;;;;;;;;2.00;1.25;;;;;;;;5072744;27;45342;-71
2022/09/07 02:27:46;;;;;;;;;1.67;1.67;;;;;;;;5068263;28;45895;-72
2022/09/07 02:30:12;;;;;;;;;1.33;1.00;;;;;;;;5053783;27;45686;-73
2022/09/07 02:32:38;;;;;;;;;1.00;1.00;;;;;;;;5058325;28;45405;-72
2022/09/07 02:35:04;;;;;;;;;3.75;1.00;;;;;;;;5074502;28;45294;-72
2022/09/07 02:37:30;;;;;;;;;1.00;1.00;;;;;;;;5076405;28;45322;-72
2022/09/07 02:39:55;;;;;;;;;1.00;1.00;;;;;;;;5073741;28;45509;-72
2022/09/07 02:42:20;;;;;;;;;2.00;2.00;;;;;;;;5075465;28;46380;-71
2022/09/07 02:44:47;;;;;;;;;1.50;1.00;;;;;;;;5073395;27;45827;-72
2022/09/07 02:47:31;;;;;;;;;0.50;0.50;;;;;;;;5073112;27;45487;-72
2022/09/07 02:49:56;;;;;;;;;1.00;1.00;;;;;;;;5074116;27;45371;-72
2022/09/07 02:52:21;;;;;;;;;1.00;1.00;;;;;;;;5075696;27;45364;-73
2022/09/07 02:55:05;;;;;;;;;2.00;2.00;;;;;;;;5072520;27;45326;-73
2022/09/07 02:58:06;;;;;;;;;3.67;2.00;;;;;;;;5067248;28;45459;-72
2022/09/07 03:00:35;;;;;;;;;1.75;0.75;;;;;;;;4992051;28;46017;-72
2022/09/07 03:03:14;;;;;;;;;4.50;1.25;;;;;;;;5057380;28;45464;-73
2022/09/07 03:05:58;;;;;;;;;1.00;1.00;;;;;;;;5072186;27;45777;-72
2022/09/07 03:08:28;;;;;;;;;4.00;2.00;;;;;;;;5055168;28;46120;-71
2022/09/07 03:10:54;;;;;;;;;3.75;2.25;;;;;;;;5057384;27;45709;-72
2022/09/07 03:13:24;;;;;;;;;5.00;3.00;;;;;;;;5068853;27;45621;-73
2022/09/07 03:15:50;;;;;;;;;12.67;9.67;;;;;;;;5073768;28;45781;-73
2022/09/07 03:18:15;;;;;;;;;26.67;19.67;;;;;;;;5069384;28;47931;-72
2022/09/07 03:20:40;;;;;;;;;1.50;1.50;;;;;;;;5074505;27;45313;-73
2022/09/07 03:23:06;;;;;;;;;4.00;4.00;;;;;;;;5070628;28;45396;-72
2022/09/07 03:25:31;;;;;;;;;4.67;2.67;;;;;;;;5071986;27;45419;-72
2022/09/07 03:27:56;;;;;;;;;3.00;1.67;;;;;;;;5062639;27;46982;-73
2022/09/07 03:30:22;;;;;;;;;2.00;2.00;;;;;;;;5073773;27;45869;-73
2022/09/07 03:32:47;;;;;;;;;4.67;3.00;;;;;;;;5079744;28;45373;-72
2022/09/07 03:35:13;;;;;;;;;4.00;4.00;;;;;;;;5078508;28;45532;-72
2022/09/07 03:37:38;;;;;;;;;3.00;3.00;;;;;;;;5056376;28;46558;-71
2022/09/07 03:40:05;;;;;;;;;3.00;3.00;;;;;;;;5075297;28;45560;-73
2022/09/07 03:42:30;;;;;;;;;1.67;1.33;;;;;;;;5073788;27;45412;-72
2022/09/07 03:44:55;;;;;;;;;3.00;3.00;;;;;;;;5055432;28;46533;-72
2022/09/07 03:47:21;;;;;;;;;2.33;1.67;;;;;;;;5063303;27;47675;-71
2022/09/07 03:49:47;;;;;;;;;1.67;1.67;;;;;;;;5060705;27;45850;-71
2022/09/07 03:52:13;;;;;;;;;1.00;1.00;;;;;;;;5067018;27;45474;-72
2022/09/07 03:54:38;;;;;;;;;1.33;1.33;;;;;;;;5071843;27;46456;-72
2022/09/07 03:57:03;;;;;;;;;2.33;1.00;;;;;;;;5072805;27;46127;-71
2022/09/07 03:59:28;;;;;;;;;2.00;2.00;;;;;;;;5074081;27;45741;-75
2022/09/07 04:01:54;;;;;;;;;1.33;1.33;;;;;;;;5078803;27;45599;-73
2022/09/07 04:04:19;;;;;;;;;1.00;1.00;;;;;;;;5072677;27;45492;-73
2022/09/07 04:06:45;;;;;;;;;2.00;1.00;;;;;;;;5055939;28;48111;-73
2022/09/07 04:09:12;;;;;;;;;3.00;2.00;;;;;;;;5057927;27;45599;-74
2022/09/07 04:11:39;;;;;;;;;1.00;1.00;;;;;;;;5079417;27;45376;-74
2022/09/07 04:14:04;;;;;;;;;1.67;1.67;;;;;;;;5052371;27;45903;-72
2022/09/07 04:16:30;;;;;;;;;1.00;1.00;;;;;;;;5068531;27;46443;-72
2022/09/07 04:18:56;;;;;;;;;4.67;2.00;;;;;;;;5065576;27;45954;-73
2022/09/07 04:21:22;;;;;;;;;2.33;2.00;;;;;;;;5068789;27;45471;-73
2022/09/07 04:23:48;;;;;;;;;6.67;5.33;;;;;;;;5045315;27;46393;-72
2022/09/07 04:26:18;;;;;;;;;4.00;3.00;;;;;;;;5072211;27;46329;-72
2022/09/07 04:28:43;;;;;;;;;3.00;2.00;;;;;;;;5070189;28;45700;-73
2022/09/07 04:31:09;;;;;;;;;5.00;3.00;;;;;;;;5066537;28;45569;-71
2022/09/07 04:33:34;;;;;;;;;34.00;28.67;;;;;;;;5050773;28;46278;-74
2022/09/07 04:36:00;;;;;;;;;3.00;3.00;;;;;;;;5070280;28;45733;-74
2022/09/07 04:38:26;;;;;;;;;3.00;3.00;;;;;;;;5069073;28;45370;-75
2022/09/07 04:41:01;;;;;;;;;4.00;2.33;;;;;;;;5074668;27;45753;-72
2022/09/07 04:43:27;;;;;;;;;58.67;43.67;;;;;;;;5059172;28;47082;-71
2022/09/07 04:45:52;;;;;;;;;9.67;9.67;;;;;;;;5071164;27;46083;-73
2022/09/07 04:48:17;;;;;;;;;9.67;8.67;;;;;;;;5077844;28;45269;-72
2022/09/07 04:50:42;;;;;;;;;18.67;17.33;;;;;;;;5077675;28;45316;-75
2022/09/07 04:53:08;;;;;;;;;10.67;9.00;;;;;;;;5076109;27;45790;-73
2022/09/07 04:55:33;;;;;;;;;13.00;11.33;;;;;;;;5068857;28;45987;-74
2022/09/07 04:57:58;;;;;;;;;4.67;3.33;;;;;;;;5058671;27;45663;-73
2022/09/07 05:00:24;;;;;;;;;3.00;3.00;;;;;;;;5066803;28;45368;-72
2022/09/07 05:02:49;;;;;;;;;3.00;3.00;;;;;;;;5080557;27;45526;-69
2022/09/07 05:05:14;;;;;;;;;3.00;3.00;;;;;;;;5077929;27;45738;-70
2022/09/07 05:07:40;;;;;;;;;1.67;1.67;;;;;;;;5077195;27;45601;-70
2022/09/07 05:10:05;;;;;;;;;2.00;2.00;;;;;;;;5074309;28;45437;-70
2022/09/07 05:12:30;;;;;;;;;2.00;2.00;;;;;;;;5071995;27;45364;-73
2022/09/07 05:14:56;;;;;;;;;2.00;2.00;;;;;;;;5076499;28;45732;-76
2022/09/07 05:17:21;;;;;;;;;4.33;3.67;;;;;;;;5078245;28;45623;-75
2022/09/07 05:19:47;;;;;;;;;3.00;2.00;;;;;;;;5079203;28;45679;-71
2022/09/07 05:22:12;;;;;;;;;2.00;1.00;;;;;;;;5070581;27;45584;-75
2022/09/07 05:24:38;;;;;;;;;4.67;3.00;;;;;;;;5085353;28;45444;-76
2022/09/07 05:27:03;;;;;;;;;2.00;2.00;;;;;;;;5079149;28;45611;-76
2022/09/07 05:29:29;;;;;;;;;3.00;1.33;;;;;;;;5080829;28;45301;-77
2022/09/07 05:31:54;;;;;;;;;3.00;3.00;;;;;;;;5080465;28;45340;-76
2022/09/07 05:34:19;;;;;;;;;1.00;1.00;;;;;;;;5072413;27;45661;-75
2022/09/07 05:36:48;;;;;;;;;1.67;1.67;;;;;;;;5098518;27;44669;-74
2022/09/07 05:39:17;;;;;;;;;1.00;1.00;;;;;;;;5096024;27;44837;-76
2022/09/07 05:42:01;;;;;;;;;3.33;3.33;;;;;;;;5080544;28;45777;-76
2022/09/07 05:44:26;;;;;;;;;2.00;2.00;;;;;;;;5075683;27;46248;-76
2022/09/07 05:46:52;;;;;;;;;1.67;1.33;;;;;;;;5047374;27;45411;-75
2022/09/07 05:49:17;;;;;;;;;2.00;2.00;;;;;;;;5048089;27;45930;-76
2022/09/07 05:51:42;;;;;;;;;1.67;1.67;;;;;;;;5062112;27;45717;-76
2022/09/07 05:54:09;;;;;;;;;4.67;3.00;;;;;;;;5075164;27;46085;-76
2022/09/07 05:56:35;;;;;;;;;3.00;3.00;;;;;;;;5057918;28;45469;-74
2022/09/07 05:59:00;;;;;;;;;2.50;2.00;;;;;;;;5065063;27;45357;-74
2022/09/07 06:01:26;;;;;;;;;2.75;0.75;;;;;;;;5064170;27;46173;-73
2022/09/07 06:03:51;;;;;;;;;1.00;1.00;;;;;;;;5066238;27;45537;-72
2022/09/07 06:06:18;;;;;;;;;4.33;2.00;;;;;;;;5065437;27;45401;-74
2022/09/07 06:08:50;;;;;;;;;2.25;2.25;;;;;;;;5069745;27;45489;-74
2022/09/07 06:11:17;;;;;;;;;4.33;4.33;;;;;;;;5055334;28;46080;-73
2022/09/07 06:13:42;;;;;;;;;8.67;7.67;;;;;;;;5051039;28;46859;-72
2022/09/07 06:16:08;;;;;;;;;3.25;3.25;;;;;;;;5079036;27;46189;-73
2022/09/07 06:18:35;;;;;;;;;6.67;4.33;;;;;;;;5074111;27;45334;-75
2022/09/07 06:21:01;;;;;;;;;3.25;1.75;;;;;;;;5071555;27;45832;-72
2022/09/07 06:23:26;;;;;;;;;8.67;3.67;;;;;;;;5052833;28;47689;-72
2022/09/07 06:25:52;;;;;;;;;3.00;3.00;;;;;;;;5057516;28;45715;-72
2022/09/07 06:28:19;;;;;;;;;3.00;2.25;;;;;;;;5066679;27;45870;-71
2022/09/07 06:30:45;;;;;;;;;1.50;1.50;;;;;;;;5068558;27;45322;-71
2022/09/07 06:33:10;;;;;;;;;3.75;2.75;;;;;;;;5073789;27;45708;-73
2022/09/07 06:35:35;;;;;;;;;3.00;3.00;;;;;;;;5070606;28;45408;-74
2022/09/07 06:38:04;;;;;;;;;2.33;2.00;;;;;;;;5047895;28;45467;-72
2022/09/07 06:40:31;;;;;;;;;3.75;3.00;;;;;;;;5062166;27;45721;-70
2022/09/07 06:42:57;;;;;;;;;5.50;3.50;;;;;;;;5065326;27;45430;-72
2022/09/07 06:45:22;;;;;;;;;3.25;3.25;;;;;;;;5054946;27;45400;-71
2022/09/07 06:47:47;;;;;;;;;2.00;2.00;;;;;;;;5080736;27;45498;-71
2022/09/07 06:50:13;;;;;;;;;3.25;3.00;;;;;;;;5071757;27;45627;-73
2022/09/07 06:52:38;;;;;;;;;3.50;1.75;;;;;;;;5062711;27;45521;-73
2022/09/07 06:55:04;;;;;;;;;2.00;2.00;;;;;;;;5063202;27;45334;-74
2022/09/07 06:57:29;;;;;;;;;2.50;1.75;;;;;;;;5065387;27;45545;-73
2022/09/07 06:59:54;;;;;;;;;5.25;3.50;;;;;;;;5062281;27;45717;-75
2022/09/07 07:02:20;;;;;;;;;3.00;1.50;;;;;;;;5067825;27;46468;-78
2022/09/07 07:04:45;;;;;;;;;3.00;2.50;;;;;;;;5067433;27;45779;-75
2022/09/07 07:07:11;;;;;;;;;3.25;3.25;;;;;;;;5056502;27;45351;-75
2022/09/07 07:09:37;;;;;;;;;2.00;1.00;;;;;;;;5062716;27;45791;-72
2022/09/07 07:12:02;;;;;;;;;4.50;3.25;;;;;;;;5060091;27;46068;-71
2022/09/07 07:14:28;;;;;;;;;4.75;4.00;;;;;;;;5064198;27;45408;-72
2022/09/07 07:16:53;;;;;;;;;7.00;4.75;;;;;;;;5057149;27;45848;-72
2022/09/07 07:19:18;;;;;;;;;1.50;1.00;;;;;;;;5064278;27;45820;-73
2022/09/07 07:21:44;;;;;;;;;1.50;1.00;;;;;;;;5068620;27;46410;-73
2022/09/07 07:24:09;;;;;;;;;1.25;1.25;;;;;;;;5063557;27;45419;-72
2022/09/07 07:26:34;;;;;;;;;3.75;2.00;;;;;;;;5057286;27;45404;-73
2022/09/07 07:28:59;;;;;;;;;1.25;1.00;;;;;;;;5059104;27;45617;-74
2022/09/07 07:31:25;;;;;;;;;2.25;2.00;;;;;;;;5053251;27;46036;-72
2022/09/07 07:33:53;;;;;;;;;9.75;9.75;;;;;;;;5058695;27;45547;-74
2022/09/07 07:36:25;;;;;;;;;2.00;2.00;;;;;;;;5063070;27;45703;-72
2022/09/07 07:38:51;;;;;;;;;3.50;1.50;;;;;;;;5058680;27;45446;-71
2022/09/07 07:41:18;;;;;;;;;4.75;4.25;;;;;;;;5072955;27;46748;-72
2022/09/07 07:43:44;;;;;;;;;3.00;2.25;;;;;;;;5051186;28;45468;-72
2022/09/07 07:46:12;;;;;;;;;3.75;2.00;;;;;;;;5065575;27;45579;-71
2022/09/07 07:48:38;;;;;;;;;6.50;2.25;;;;;;;;5044417;28;45473;-72
2022/09/07 07:51:05;;;;;;;;;2.50;1.75;;;;;;;;5060301;28;45672;-72
2022/09/07 07:53:31;;;;;;;;;4.00;2.25;;;;;;;;5066433;27;45645;-72
2022/09/07 07:55:58;;;;;;;;;3.25;2.00;;;;;;;;5052789;28;45572;-71
2022/09/07 07:58:25;;;;;;;;;3.50;3.50;;;;;;;;5071450;28;45665;-72
2022/09/07 08:00:51;;;;;;;;;3.50;3.00;;;;;;;;5072430;28;46058;-71
2022/09/07 08:03:16;;;;;;;;;5.00;2.00;;;;;;;;5054771;28;45645;-72
2022/09/07 08:05:41;;;;;;;;;2.00;2.00;;;;;;;;5061039;28;45582;-71
2022/09/07 08:08:06;;;;;;;;;2.00;1.00;;;;;;;;5060074;27;45283;-72
2022/09/07 08:10:32;;;;;;;;;6.50;2.75;;;;;;;;5063630;27;46254;-72
2022/09/07 08:12:57;;;;;;;;;3.50;2.00;;;;;;;;5054804;28;45336;-72
2022/09/07 08:15:23;;;;;;;;;5.00;3.25;;;;;;;;5066625;27;45838;-71
2022/09/07 08:17:48;;;;;;;;;6.50;2.75;;;;;;;;5071783;27;45506;-71
2022/09/07 08:20:14;;;;;;;;;2.75;2.50;;;;;;;;5070524;28;45591;-71
2022/09/07 08:22:40;;;;;;;;;4.50;3.00;;;;;;;;5069485;28;45792;-72
2022/09/07 08:25:06;;;;;;;;;2.25;1.00;;;;;;;;5071524;27;45582;-72
2022/09/07 08:27:31;;;;;;;;;3.75;2.00;;;;;;;;5067750;27;45778;-70
2022/09/07 08:29:56;;;;;;;;;2.75;2.25;;;;;;;;5063477;27;45880;-70
2022/09/07 08:32:22;;;;;;;;;4.00;3.00;;;;;;;;5066391;27;46139;-71
2022/09/07 08:34:47;;;;;;;;;4.25;3.00;;;;;;;;5065310;27;45684;-71
2022/09/07 08:37:13;;;;;;;;;4.00;2.75;;;;;;;;5064061;27;45870;-72
2022/09/07 08:39:39;;;;;;;;;5.00;1.75;;;;;;;;5035197;28;46695;-71
2022/09/07 08:42:29;;;;;;;;;2.00;2.00;;;;;;;;5051576;27;45822;-71
2022/09/07 08:45:05;;;;;;;;;3.50;2.50;;;;;;;;5053590;27;45516;-74
2022/09/07 08:47:31;;;;;;;;;2.25;1.00;;;;;;;;5066374;27;45835;-73
2022/09/07 08:50:10;;;;;;;;;1.75;1.75;;;;;;;;5071622;27;46694;-72
2022/09/07 08:52:44;;;;;;;;;2.50;2.50;;;;;;;;5071021;27;45669;-73
2022/09/07 08:55:13;;;;;;;;;3.00;3.00;;;;;;;;5067920;27;45735;-74
2022/09/07 08:57:40;;;;;;;;;2.75;2.75;;;;;;;;5072976;27;45669;-73
2022/09/07 09:00:10;;;;;;;;;1.75;1.75;;;;;;;;5073328;28;45459;-77
2022/09/07 09:02:36;;;;;;;;;3.25;3.25;;;;;;;;5060330;28;45398;-75
2022/09/07 09:05:02;;;;;;;;;1.00;1.00;;;;;;;;5055791;28;45631;-76
2022/09/07 09:07:39;;;;;;;;;2.75;2.25;;;;;;;;5073434;28;45470;-75
2022/09/07 09:10:22;;;;;;;;;4.50;2.00;;;;;;;;5072459;27;46516;-77
2022/09/07 09:12:56;;;;;;;;;3.50;2.50;;;;;;;;5076665;28;45377;-79
2022/09/07 09:15:32;;;;;;;;;1.50;1.50;;;;;;;;5054273;27;45672;-77
2022/09/07 09:18:00;;;;;;;;;4.50;1.50;;;;;;;;5061722;28;45372;-76
2022/09/07 09:20:34;;;;;;;;;2.25;1.75;;;;;;;;5044900;28;47044;-77
2022/09/07 09:23:12;;;;;;;;;4.00;3.25;;;;;;;;5070719;28;46433;-77
2022/09/07 09:25:40;;;;;;;;;2.00;1.00;;;;;;;;5052352;28;45919;-77
2022/09/07 09:28:08;;;;;;;;;2.75;1.00;;;;;;;;5071280;28;45527;-77
2022/09/07 09:30:34;;;;;;;;;2.75;1.25;;;;;;;;5057401;28;47310;-77
2022/09/07 09:33:13;;;;;;;;;2.75;2.50;;;;;;;;5067778;28;45354;-75
2022/09/07 09:35:39;;;;;;;;;2.00;1.00;;;;;;;;5072684;28;46004;-76
2022/09/07 09:38:27;;;;;;;;;3.25;2.00;;;;;;;;5076547;28;45830;-80
2022/09/07 09:40:54;;;;;;;;;2.25;1.75;;;;;;;;5049143;28;46162;-76
2022/09/07 09:43:20;;;;;;;;;3.00;2.25;;;;;;;;5053681;28;45510;-78
2022/09/07 09:45:48;;;;;;;;;3.50;2.75;;;;;;;;5078875;28;45660;-76
2022/09/07 09:48:25;;;;;;;;;3.00;3.00;;;;;;;;5047495;28;46493;-75
2022/09/07 09:50:52;;;;;;;;;4.50;2.50;;;;;;;;5079407;28;45424;-74
2022/09/07 09:53:31;;;;;;;;;4.00;2.00;;;;;;;;5076410;27;45499;-73
2022/09/07 09:55:57;;;;;;;;;2.00;0.50;;;;;;;;5075284;27;45457;-78
2022/09/07 09:58:46;;;;;;;;;3.00;2.25;;;;;;;;5057226;28;45752;-76
2022/09/07 10:01:22;;;;;;;;;4.00;3.00;;;;;;;;5069229;27;45330;-77
2022/09/07 10:03:48;;;;;;;;;2.25;1.75;;;;;;;;5073834;28;45337;-77
2022/09/07 10:06:15;;;;;;;;;1.25;1.25;;;;;;;;5069755;28;45420;-75
2022/09/07 10:08:50;;;;;;;;;3.50;3.50;;;;;;;;5071697;28;45773;-77
2022/09/07 10:11:16;;;;;;;;;1.25;1.25;;;;;;;;5073098;27;47028;-75
2022/09/07 10:13:53;;;;;;;;;4.50;1.75;;;;;;;;5053807;28;45448;-76
2022/09/07 10:16:31;;;;;;;;;3.00;1.75;;;;;;;;5073468;28;45633;-76
2022/09/07 10:18:57;;;;;;;;;2.00;2.00;;;;;;;;5054922;28;45898;-77
2022/09/07 10:21:22;;;;;;;;;3.75;1.50;;;;;;;;5065562;27;46142;-77
2022/09/07 10:23:57;;;;;;;;;4.25;2.25;;;;;;;;5069693;27;45504;-80
2022/09/07 10:26:27;;;;;;;;;3.75;3.25;;;;;;;;5055841;28;45511;-78
2022/09/07 10:29:11;;;;;;;;;3.50;2.00;;;;;;;;5075519;27;45841;-75
2022/09/07 10:31:44;;;;;;;;;3.00;1.50;;;;;;;;5076695;27;46569;-77
2022/09/07 10:34:09;;;;;;;;;4.75;3.00;;;;;;;;5066395;27;45670;-78
2022/09/07 10:36:55;;;;;;;;;4.25;2.50;;;;;;;;5052858;28;45847;-77
2022/09/07 10:39:39;;;;;;;;;3.25;1.00;;;;;;;;5062240;27;45436;-76
2022/09/07 10:42:23;;;;;;;;;5.50;5.00;;;;;;;;5069409;27;45443;-78
2022/09/07 10:44:59;;;;;;;;;8.75;8.50;;;;;;;;5066056;27;46441;-76
2022/09/07 10:47:25;;;;;;;;;2.00;2.00;;;;;;;;5072653;27;45432;-75
2022/09/07 10:49:59;;;;;;;;;5.75;4.00;;;;;;;;5073759;27;45927;-76
2022/09/07 10:52:27;;;;;;;;;2.25;2.25;;;;;;;;5071784;27;45694;-78
2022/09/07 10:54:55;;;;;;;;;2.50;1.50;;;;;;;;5064700;28;45663;-81
2022/09/07 10:57:21;;;;;;;;;2.50;2.00;;;;;;;;5061801;28;45351;-78
2022/09/07 10:59:52;;;;;;;;;2.25;1.50;;;;;;;;5054787;28;45762;-80
2022/09/07 11:02:21;;;;;;;;;4.50;3.00;;;;;;;;5057820;28;47259;-79
2022/09/07 11:04:46;;;;;;;;;2.50;1.00;;;;;;;;5083289;27;45736;-77
2022/09/07 11:07:26;;;;;;;;;3.00;1.50;;;;;;;;5062251;27;45517;-80
2022/09/07 11:10:02;;;;;;;;;2.50;1.00;;;;;;;;5067896;27;45444;-76
2022/09/07 11:12:29;;;;;;;;;3.25;2.75;;;;;;;;5057085;28;46368;-78
2022/09/07 11:15:03;;;;;;;;;1.00;1.00;;;;;;;;5069504;27;45790;-77
2022/09/07 11:17:30;;;;;;;;;3.75;1.00;;;;;;;;5055145;28;46011;-79
2022/09/07 11:20:02;;;;;;;;;9.00;2.25;;;;;;;;5058322;28;46457;-80
2022/09/07 11:22:37;;;;;;;;;1.25;1.25;;;;;;;;5074452;27;45833;-80
2022/09/07 11:25:13;;;;;;;;;1.25;1.25;;;;;;;;5058865;27;45945;-77
2022/09/07 11:27:43;;;;;;;;;1.00;1.00;;;;;;;;5077973;27;45487;-78
2022/09/07 11:30:30;;;;;;;;;5.00;2.50;;;;;;;;5077236;27;45545;-76
2022/09/07 11:33:12;;;;;;;;;1.25;1.25;;;;;;;;5080137;27;46159;-80
2022/09/07 11:35:46;;;;;;;;;4.00;2.50;;;;;;;;5074855;27;45802;-79
2022/09/07 11:38:22;;;;;;;;;8.75;6.50;;;;;;;;5069896;27;45623;-80
2022/09/07 11:40:54;;;;;;;;;2.50;2.00;;;;;;;;5071203;28;45626;-78
2022/09/07 11:43:36;;;;;;;;;3.25;2.00;;;;;;;;5068976;28;45732;-79
2022/09/07 11:46:04;;;;;;;;;1.00;1.00;;;;;;;;5072803;27;45856;-80
2022/09/07 11:48:38;;;;;;;;;3.75;2.00;;;;;;;;5054457;28;45348;-79
2022/09/07 11:51:07;;;;;;;;;1.25;1.25;;;;;;;;5075115;27;45602;-81
2022/09/07 11:53:36;;;;;;;;;0.75;0.75;;;;;;;;5073951;27;45497;-77
2022/09/07 11:56:13;;;;;;;;;1.00;1.00;;;;;;;;5075862;28;45777;-78
2022/09/07 11:58:39;;;;;;;;;1.25;1.25;;;;;;;;5066357;28;45807;-79
2022/09/07 12:01:07;;;;;;;;;2.00;2.00;;;;;;;;5071688;27;45577;-80
2022/09/07 12:03:36;;;;;;;;;1.50;1.00;;;;;;;;5076536;27;45493;-78
2022/09/07 12:06:13;;;;;;;;;4.00;1.00;;;;;;;;5070042;28;45924;-78
2022/09/07 12:08:57;;;;;;;;;2.00;1.00;;;;;;;;5076089;27;45517;-79
2022/09/07 12:11:31;;;;;;;;;1.25;1.25;;;;;;;;5075407;27;45518;-79
2022/09/07 12:14:03;;;;;;;;;2.00;1.00;;;;;;;;5075316;27;45459;-79
2022/09/07 12:16:28;;;;;;;;;1.50;1.50;;;;;;;;5062722;28;45409;-79
2022/09/07 12:19:03;;;;;;;;;2.00;0.75;;;;;;;;5064922;27;45399;-79
2022/09/07 12:21:31;;;;;;;;;2.25;1.00;;;;;;;;5062989;27;45704;-80
2022/09/07 12:23:56;;;;;;;;;1.00;1.00;;;;;;;;5073403;28;46574;-79
2022/09/07 12:26:37;;;;;;;;;5.25;2.25;;;;;;;;5069934;28;45630;-79
2022/09/07 12:29:17;;;;;;;;;5.00;2.00;;;;;;;;5073742;27;45719;-74
2022/09/07 12:31:44;;;;;;;;;2.50;1.50;;;;;;;;5073966;28;45744;-81
2022/09/07 12:34:28;;;;;;;;;2.75;2.00;;;;;;;;5057142;28;46832;-79
2022/09/07 12:36:53;;;;;;;;;1.25;1.00;;;;;;;;5073452;28;45452;-77
2022/09/07 12:39:27;;;;;;;;;1.50;1.50;;;;;;;;5073568;28;45317;-77
2022/09/07 12:42:04;;;;;;;;;3.00;2.00;;;;;;;;5096353;27;27775;-81
2022/09/07 12:44:30;;;;;;;;;2.40;2.40;;;;;;;;5110847;28;8941;-79
2022/09/07 12:46:56;;;;;;;;;5.00;1.25;;;;;;;;5110552;28;8913;-79
2022/09/07 12:49:40;;;;;;;;;0.75;0.50;;;;;;;;5092834;28;8944;-78
2022/09/07 12:52:24;;;;;;;;;2.00;1.00;;;;;;;;5102467;28;8807;-78
2022/09/07 12:54:52;;;;;;;;;4.60;2.00;;;;;;;;5093569;28;8954;-78
2022/09/07 12:57:29;;;;;;;;;1.40;1.00;;;;;;;;5109230;28;8809;-76
2022/09/07 12:59:57;;;;;;;;;1.60;1.00;;;;;;;;5112868;27;8788;-75
2022/09/07 13:02:29;;;;;;;;;1.20;0.40;;;;;;;;5105804;27;8812;-78
2022/09/07 13:04:58;;;;;;;;;3.40;0.40;;;;;;;;5112973;27;8812;-77
2022/09/07 13:07:39;;;;;;;;;1.00;1.00;;;;;;;;5108255;28;8833;-76
2022/09/07 13:10:17;;;;;;;;;2.20;1.60;;;;;;;;5101762;27;8789;-75
2022/09/07 13:12:45;;;;;;;;;3.40;1.80;;;;;;;;5106991;28;8918;-75
2022/09/07 13:15:30;;;;;;;;;1.00;1.00;;;;;;;;5112696;27;8857;-77
2022/09/07 13:17:56;;;;;;;;;2.00;1.00;;;;;;;;5112550;27;8800;-78
2022/09/07 13:20:27;;;;;;;;;2.00;2.00;;;;;;;;5103186;28;8807;-77
2022/09/07 13:22:53;;;;;;;;;1.60;1.60;;;;;;;;5113377;28;8829;-77
2022/09/07 13:25:19;;;;;;;;;0.75;0.75;;;;;;;;5107239;27;8806;-77
2022/09/07 13:27:56;;;;;;;;;1.80;1.80;;;;;;;;5104000;27;9723;-78
2022/09/07 13:30:24;;;;;;;;;1.60;1.60;;;;;;;;5093538;28;8775;-79
2022/09/07 13:32:49;;;;;;;;;2.20;1.20;;;;;;;;5094982;28;8807;-78
2022/09/07 13:35:20;;;;;;;;;2.25;1.50;;;;;;;;5102518;27;8839;-78
2022/09/07 13:37:51;;;;;;;;;3.80;1.00;;;;;;;;5104094;27;8796;-76
2022/09/07 13:40:19;;;;;;;;;1.60;1.60;;;;;;;;5100078;27;8885;-74
2022/09/07 13:42:46;;;;;;;;;3.00;1.40;;;;;;;;5096466;27;8901;-77
2022/09/07 13:45:26;;;;;;;;;1.00;1.00;;;;;;;;5103475;27;8787;-78
2022/09/07 13:47:54;;;;;;;;;3.00;0.00;;;;;;;;5088487;27;9728;-79
2022/09/07 13:50:40;;;;;;;;;1.40;1.00;;;;;;;;5110584;27;8795;-78
2022/09/07 13:53:06;;;;;;;;;4.40;1.40;;;;;;;;5107509;27;8777;-77
2022/09/07 13:55:31;;;;;;;;;2.00;2.00;;;;;;;;5106215;27;8985;-74
2022/09/07 13:58:05;;;;;;;;;2.00;2.00;;;;;;;;5106326;28;8861;-73
2022/09/07 14:00:30;;;;;;;;;0.00;0.00;;;;;;;;5103687;27;8808;-73
2022/09/07 14:02:59;;;;;;;;;4.25;2.00;;;;;;;;5106777;28;9565;-75
2022/09/07 14:05:25;;;;;;;;;3.40;1.60;;;;;;;;5095278;28;8777;-74
2022/09/07 14:07:51;;;;;;;;;3.00;1.75;;;;;;;;5097860;27;8847;-76
2022/09/07 14:10:18;;;;;;;;;1.60;1.60;;;;;;;;5100566;27;8745;-73
2022/09/07 14:12:46;;;;;;;;;1.80;1.80;;;;;;;;5107074;27;8789;-76
2022/09/07 14:15:20;;;;;;;;;0.80;0.80;;;;;;;;5097998;27;8803;-74
2022/09/07 14:17:46;;;;;;;;;1.00;1.00;;;;;;;;5086330;27;8765;-75
2022/09/07 14:20:12;;;;;;;;;0.00;0.00;;;;;;;;5099710;27;8860;-75
2022/09/07 14:22:38;;;;;;;;;4.00;1.00;;;;;;;;5102718;27;8793;-76
2022/09/07 14:25:05;;;;;;;;;1.00;1.00;;;;;;;;5088884;27;8819;-76
2022/09/07 14:27:37;;;;;;;;;1.00;1.00;;;;;;;;5106188;28;8820;-75
2022/09/07 14:30:17;;;;;;;;;1.40;1.00;;;;;;;;5101846;27;8801;-77
2022/09/07 14:32:43;;;;;;;;;1.60;1.00;;;;;;;;5095531;28;8807;-75
2022/09/07 14:35:12;;;;;;;;;0.50;0.25;;;;;;;;5099351;27;8923;-77
2022/09/07 14:37:38;;;;;;;;;1.60;1.40;;;;;;;;5104284;28;8865;-76
2022/09/07 14:40:04;;;;;;;;;2.50;1.00;;;;;;;;5100920;28;8820;-77
2022/09/07 14:42:29;;;;;;;;;0.50;0.25;;;;;;;;5106281;28;8850;-76
2022/09/07 14:45:13;;;;;;;;;0.25;0.25;;;;;;;;5104399;27;8842;-79
2022/09/07 14:47:39;;;;;;;;;2.40;1.20;;;;;;;;5107009;28;8730;-75
2022/09/07 14:50:05;;;;;;;;;3.75;2.25;;;;;;;;5105403;28;8843;-77
2022/09/07 14:52:32;;;;;;;;;1.40;1.40;;;;;;;;5108698;28;8914;-76
2022/09/07 14:54:58;;;;;;;;;1.20;1.20;;;;;;;;5105502;27;8816;-75
2022/09/07 14:57:29;;;;;;;;;1.00;1.00;;;;;;;;5087187;28;9209;-75